createdAt,value
2023-02-22T00:01:07.630Z,16.10
2023-02-22T00:03:35.037Z,16.10
2023-02-22T00:06:05.155Z,16.10
2023-02-22T00:08:35.633Z,16.10
2023-02-22T00:11:09.261Z,16.10
2023-02-22T00:13:38.136Z,16.00
2023-02-22T00:16:05.360Z,16.00
2023-02-22T00:18:32.251Z,16.00
2023-02-22T00:21:01.158Z,16.00
2023-02-22T00:23:30.002Z,16.00
2023-02-22T00:25:59.339Z,15.90
2023-02-22T00:28:27.041Z,15.90
2023-02-22T00:30:54.887Z,16.00
2023-02-22T00:33:22.027Z,16.00
2023-02-22T00:35:48.938Z,15.90
2023-02-22T00:38:18.452Z,16.00
2023-02-22T00:40:45.518Z,16.00
2023-02-22T00:43:13.220Z,16.00
2023-02-22T00:45:40.108Z,16.00
2023-02-22T00:48:08.642Z,16.00
2023-02-22T00:50:36.734Z,16.00
2023-02-22T00:53:07.505Z,16.00
2023-02-22T00:55:36.581Z,16.00
2023-02-22T00:58:04.849Z,16.00
2023-02-22T01:00:38.620Z,16.00
2023-02-22T01:03:11.226Z,16.00
2023-02-22T01:05:44.230Z,16.00
2023-02-22T01:08:13.284Z,16.00
2023-02-22T01:10:40.556Z,16.00
2023-02-22T01:13:09.497Z,16.00
2023-02-22T01:15:39.259Z,16.00
2023-02-22T01:18:07.021Z,16.00
2023-02-22T01:20:34.597Z,16.00
2023-02-22T01:23:03.721Z,16.00
2023-02-22T01:25:31.849Z,15.90
2023-02-22T01:28:01.075Z,15.90
2023-02-22T01:30:32.876Z,15.90
2023-02-22T01:33:01.229Z,15.90
2023-02-22T01:35:33.717Z,15.90
2023-02-22T01:38:00.793Z,15.90
2023-02-22T01:40:32.021Z,15.90
2023-02-22T01:43:02.089Z,15.90
2023-02-22T01:45:34.425Z,15.90
2023-02-22T01:48:04.192Z,15.90
2023-02-22T01:50:35.615Z,15.90
2023-02-22T01:53:05.312Z,15.90
2023-02-22T01:55:33.944Z,15.90
2023-02-22T01:58:01.827Z,15.90
2023-02-22T02:00:28.872Z,15.90
2023-02-22T02:03:02.614Z,15.80
2023-02-22T02:05:31.787Z,15.90
2023-02-22T02:08:03.621Z,15.90
2023-02-22T02:10:32.255Z,15.90
2023-02-22T02:12:59.519Z,15.90
2023-02-22T02:15:30.886Z,15.90
2023-02-22T02:18:04.804Z,15.90
2023-02-22T02:20:46.624Z,15.90
2023-02-22T02:23:37.351Z,15.90
2023-02-22T02:26:16.555Z,15.90
2023-02-22T02:29:01.941Z,15.90
2023-02-22T02:32:06.193Z,15.80
2023-02-22T02:34:39.883Z,15.80
2023-02-22T02:37:31.218Z,15.80
2023-02-22T02:40:17.869Z,15.70
2023-02-22T02:43:06.493Z,15.80
2023-02-22T02:46:08.862Z,15.70
2023-02-22T02:48:39.115Z,15.70
2023-02-22T02:51:08.203Z,15.70
2023-02-22T02:53:39.691Z,15.70
2023-02-22T02:56:07.671Z,15.60
2023-02-22T02:58:43.044Z,15.70
2023-02-22T03:01:12.968Z,15.70
2023-02-22T03:04:00.553Z,15.70
2023-02-22T03:06:39.172Z,15.60
2023-02-22T03:09:54.835Z,15.60
2023-02-22T03:12:39.955Z,15.60
2023-02-22T03:15:21.998Z,15.60
2023-02-22T03:18:04.041Z,15.60
2023-02-22T03:20:53.141Z,15.60
2023-02-22T03:23:24.855Z,15.60
2023-02-22T03:26:01.899Z,15.60
2023-02-22T03:28:30.355Z,15.60
2023-02-22T03:31:07.851Z,15.60
2023-02-22T03:33:42.043Z,15.50
2023-02-22T03:36:43.773Z,15.50
2023-02-22T03:39:16.114Z,15.50
2023-02-22T03:41:49.484Z,15.50
2023-02-22T03:44:21.590Z,15.60
2023-02-22T03:46:50.423Z,15.60
2023-02-22T03:49:36.134Z,15.60
2023-02-22T03:52:04.976Z,15.60
2023-02-22T03:54:32.545Z,15.60
2023-02-22T03:57:15.789Z,15.60
2023-02-22T03:59:43.286Z,15.60
2023-02-22T04:02:10.132Z,15.60
2023-02-22T04:04:37.039Z,15.60
2023-02-22T04:07:03.993Z,15.60
2023-02-22T04:09:30.824Z,15.60
2023-02-22T04:11:57.709Z,15.60
2023-02-22T04:14:24.722Z,15.60
2023-02-22T04:16:51.580Z,15.60
2023-02-22T04:19:18.582Z,15.60
2023-02-22T04:21:45.429Z,15.60
2023-02-22T04:24:12.480Z,15.60
2023-02-22T04:26:39.387Z,15.60
2023-02-22T04:29:06.306Z,15.60
2023-02-22T04:31:35.793Z,15.60
2023-02-22T04:34:03.531Z,15.60
2023-02-22T04:36:31.919Z,15.60
2023-02-22T04:39:00.155Z,15.70
2023-02-22T04:41:27.231Z,15.60
2023-02-22T04:43:54.173Z,15.60
2023-02-22T04:46:21.144Z,15.60
2023-02-22T04:48:48.127Z,15.60
2023-02-22T04:51:15.557Z,15.60
2023-02-22T04:53:42.565Z,15.60
2023-02-22T04:56:11.048Z,15.60
2023-02-22T04:58:38.017Z,15.70
2023-02-22T05:01:04.983Z,15.60
2023-02-22T05:03:31.974Z,15.70
2023-02-22T05:05:58.939Z,15.60
2023-02-22T05:08:25.763Z,15.60
2023-02-22T05:10:52.608Z,15.60
2023-02-22T05:13:19.415Z,15.60
2023-02-22T05:15:46.274Z,15.60
2023-02-22T05:18:13.217Z,15.60
2023-02-22T05:20:40.336Z,15.60
2023-02-22T05:23:07.238Z,15.60
2023-02-22T05:25:34.218Z,15.60
2023-02-22T05:28:08.296Z,15.60
2023-02-22T05:30:39.720Z,15.60
2023-02-22T05:33:06.820Z,15.60
2023-02-22T05:35:33.726Z,15.60
2023-02-22T05:38:03.220Z,15.60
2023-02-22T05:40:30.850Z,15.60
2023-02-22T05:42:58.055Z,15.60
2023-02-22T05:45:27.199Z,15.60
2023-02-22T05:47:54.804Z,15.60
2023-02-22T05:50:22.727Z,15.60
2023-02-22T05:52:49.943Z,15.60
2023-02-22T05:55:19.384Z,15.60
2023-02-22T05:57:46.394Z,15.70
2023-02-22T06:00:26.423Z,15.70
2023-02-22T06:03:05.683Z,15.70
2023-02-22T06:05:32.934Z,15.70
2023-02-22T06:08:00.549Z,15.60
2023-02-22T06:10:27.956Z,15.60
2023-02-22T06:12:55.668Z,15.60
2023-02-22T06:15:24.585Z,15.60
2023-02-22T06:17:52.271Z,15.60
2023-02-22T06:20:22.749Z,15.60
2023-02-22T06:22:51.236Z,15.60
2023-02-22T06:25:21.330Z,15.60
2023-02-22T06:27:48.352Z,15.60
2023-02-22T06:30:17.269Z,15.60
2023-02-22T06:32:44.196Z,15.50
2023-02-22T06:35:11.107Z,15.50
2023-02-22T06:37:39.387Z,15.50
2023-02-22T06:40:06.534Z,15.50
2023-02-22T06:42:33.616Z,15.50
2023-02-22T06:45:00.670Z,15.50
2023-02-22T06:47:27.588Z,15.50
2023-02-22T06:49:55.704Z,15.50
2023-02-22T06:52:22.825Z,15.50
2023-02-22T06:54:50.784Z,15.50
2023-02-22T06:57:18.263Z,15.50
2023-02-22T06:59:45.301Z,15.60
2023-02-22T07:02:12.792Z,15.50
2023-02-22T07:04:43.164Z,15.50
2023-02-22T07:07:10.639Z,15.60
2023-02-22T07:09:37.698Z,15.60
2023-02-22T07:12:04.717Z,15.60
2023-02-22T07:14:31.649Z,15.60
2023-02-22T07:16:58.514Z,15.60
2023-02-22T07:19:25.344Z,15.60
2023-02-22T07:21:59.239Z,15.60
2023-02-22T07:24:28.580Z,15.70
2023-02-22T07:26:55.577Z,15.70
2023-02-22T07:29:25.067Z,15.70
2023-02-22T07:31:51.962Z,15.70
2023-02-22T07:34:19.039Z,15.70
2023-02-22T07:36:45.926Z,15.70
2023-02-22T07:39:12.873Z,15.70
2023-02-22T07:41:39.818Z,15.70
2023-02-22T07:44:06.705Z,15.70
2023-02-22T07:46:34.050Z,15.70
2023-02-22T07:49:00.931Z,15.70
2023-02-22T07:51:27.909Z,15.70
2023-02-22T07:53:54.784Z,15.80
2023-02-22T07:56:21.687Z,15.80
2023-02-22T07:58:48.733Z,15.80
2023-02-22T08:01:15.875Z,15.80
2023-02-22T08:03:42.891Z,15.80
2023-02-22T08:06:09.796Z,15.90
2023-02-22T08:08:36.724Z,15.90
2023-02-22T08:11:03.754Z,15.90
2023-02-22T08:13:30.625Z,15.90
2023-02-22T08:15:57.701Z,15.90
2023-02-22T08:18:25.737Z,16.00
2023-02-22T08:20:53.647Z,16.00
2023-02-22T08:23:23.076Z,16.10
2023-02-22T08:25:49.956Z,16.10
2023-02-22T08:28:20.035Z,16.10
2023-02-22T08:30:47.228Z,16.10
2023-02-22T08:33:16.846Z,16.20
2023-02-22T08:35:43.985Z,16.20
2023-02-22T08:38:26.025Z,16.20
2023-02-22T08:40:53.084Z,16.30
2023-02-22T08:43:21.492Z,16.30
2023-02-22T08:45:49.238Z,16.30
2023-02-22T08:48:18.361Z,16.30
2023-02-22T08:50:45.851Z,16.40
2023-02-22T08:53:13.809Z,16.40
2023-02-22T08:55:42.126Z,16.40
2023-02-22T08:58:09.946Z,16.50
2023-02-22T09:00:39.044Z,16.50
2023-02-22T09:03:08.994Z,16.50
2023-02-22T09:05:36.367Z,16.60
2023-02-22T09:08:06.230Z,16.60
2023-02-22T09:10:34.581Z,16.60
2023-02-22T09:13:02.313Z,16.70
2023-02-22T09:15:29.971Z,16.70
2023-02-22T09:17:57.067Z,16.70
2023-02-22T09:20:24.940Z,16.80
2023-02-22T09:22:53.118Z,16.80
2023-02-22T09:25:23.073Z,16.90
2023-02-22T09:27:54.162Z,16.90
2023-02-22T09:30:33.049Z,16.90
2023-02-22T09:33:03.290Z,16.90
2023-02-22T09:35:30.394Z,17.00
2023-02-22T09:37:59.419Z,17.00
2023-02-22T09:40:30.322Z,17.10
2023-02-22T09:42:57.248Z,17.00
2023-02-22T09:45:31.230Z,17.10
2023-02-22T09:48:11.721Z,17.10
2023-02-22T09:50:51.140Z,17.20
2023-02-22T09:53:41.903Z,17.20
2023-02-22T09:56:17.581Z,17.20
2023-02-22T09:58:53.853Z,17.30
2023-02-22T10:01:32.670Z,17.30
2023-02-22T10:04:18.734Z,17.30
2023-02-22T10:07:20.605Z,17.40
2023-02-22T10:09:49.614Z,17.40
2023-02-22T10:12:30.433Z,17.50
2023-02-22T10:15:26.158Z,17.50
2023-02-22T10:18:13.667Z,17.60
2023-02-22T10:20:57.171Z,17.60
2023-02-22T10:23:35.032Z,17.70
2023-02-22T10:26:26.909Z,17.70
2023-02-22T10:29:27.649Z,17.70
2023-02-22T10:31:59.152Z,17.80
2023-02-22T10:34:38.206Z,17.80
2023-02-22T10:37:29.690Z,17.80
2023-02-22T10:40:12.690Z,17.80
2023-02-22T10:42:39.548Z,17.90
2023-02-22T10:45:18.405Z,17.90
2023-02-22T10:47:46.822Z,18.00
2023-02-22T10:50:15.369Z,18.00
2023-02-22T10:52:42.413Z,18.10
2023-02-22T10:55:15.827Z,18.10
2023-02-22T10:57:46.304Z,18.10
2023-02-22T11:00:29.488Z,18.20
2023-02-22T11:03:01.730Z,18.20
2023-02-22T11:05:40.121Z,18.30
2023-02-22T11:08:24.929Z,18.30
2023-02-22T11:10:57.343Z,18.30
2023-02-22T11:13:33.944Z,18.30
2023-02-22T11:16:17.123Z,18.30
2023-02-22T11:18:44.492Z,18.40
2023-02-22T11:21:14.004Z,18.40
2023-02-22T11:23:44.918Z,18.40
2023-02-22T11:26:16.889Z,18.40
2023-02-22T11:28:50.618Z,18.40
2023-02-22T11:31:29.238Z,18.50
2023-02-22T11:33:59.846Z,18.50
2023-02-22T11:36:30.656Z,18.50
2023-02-22T11:39:00.104Z,18.50
2023-02-22T11:41:35.906Z,18.60
2023-02-22T11:44:15.005Z,18.60
2023-02-22T11:46:43.043Z,18.60
2023-02-22T11:49:12.856Z,18.60
2023-02-22T11:51:54.649Z,18.50
2023-02-22T11:54:39.408Z,18.50
2023-02-22T11:57:47.924Z,18.40
2023-02-22T12:00:27.113Z,18.40
2023-02-22T12:03:02.762Z,18.40
2023-02-22T12:05:59.705Z,18.30
2023-02-22T12:09:00.274Z,18.30
2023-02-22T12:12:14.398Z,18.40
2023-02-22T12:15:02.627Z,18.30
2023-02-22T12:18:00.485Z,18.30
2023-02-22T12:20:45.805Z,18.30
2023-02-22T12:23:16.018Z,18.30
2023-02-22T12:25:58.637Z,18.40
2023-02-22T12:29:00.153Z,18.40
2023-02-22T12:31:35.696Z,18.30
2023-02-22T12:34:28.465Z,18.40
2023-02-22T12:37:07.837Z,18.40
2023-02-22T12:40:02.191Z,18.30
2023-02-22T12:42:49.928Z,18.40
2023-02-22T12:45:36.057Z,18.40
2023-02-22T12:48:10.428Z,18.40
2023-02-22T12:50:37.866Z,18.40
2023-02-22T12:53:25.820Z,18.40
2023-02-22T12:56:03.784Z,18.40
2023-02-22T12:58:39.687Z,18.40
2023-02-22T13:01:21.267Z,18.40
2023-02-22T13:03:49.308Z,18.50
2023-02-22T13:06:39.975Z,18.40
2023-02-22T13:09:30.424Z,18.50
2023-02-22T13:12:02.869Z,18.50
2023-02-22T13:14:44.748Z,18.60
2023-02-22T13:17:21.118Z,18.60
2023-02-22T13:19:59.903Z,18.60
2023-02-22T13:22:32.980Z,18.70
2023-02-22T13:25:34.281Z,18.70
2023-02-22T13:28:18.040Z,18.70
2023-02-22T13:31:09.591Z,18.80
2023-02-22T13:33:51.230Z,18.80
2023-02-22T13:36:18.357Z,18.80
2023-02-22T13:38:51.553Z,18.80
2023-02-22T13:41:30.119Z,18.80
2023-02-22T13:44:22.958Z,18.80
2023-02-22T13:47:08.185Z,18.80
2023-02-22T13:49:52.305Z,18.80
2023-02-22T13:52:21.857Z,18.80
2023-02-22T13:55:15.460Z,18.80
2023-02-22T13:57:48.631Z,18.80
2023-02-22T14:00:15.500Z,18.80
2023-02-22T14:03:03.317Z,18.80
2023-02-22T14:05:41.606Z,18.80
2023-02-22T14:08:34.959Z,18.80
2023-02-22T14:11:06.098Z,18.80
2023-02-22T14:13:58.106Z,18.80
2023-02-22T14:16:29.498Z,18.80
2023-02-22T14:19:14.735Z,18.80
2023-02-22T14:22:02.149Z,18.80
2023-02-22T14:24:51.247Z,18.80
2023-02-22T14:27:18.504Z,18.70
2023-02-22T14:30:26.126Z,18.70
2023-02-22T14:32:53.358Z,18.70
2023-02-22T14:35:30.006Z,18.70
2023-02-22T14:38:04.784Z,18.60
2023-02-22T14:40:35.044Z,18.60
2023-02-22T14:43:21.746Z,18.50
2023-02-22T14:45:58.699Z,18.50
2023-02-22T14:48:40.134Z,18.40
2023-02-22T14:51:24.571Z,18.40
2023-02-22T14:53:54.330Z,18.40
2023-02-22T14:56:30.095Z,18.40
2023-02-22T14:59:08.064Z,18.40
2023-02-22T15:01:48.849Z,18.30
2023-02-22T15:04:27.443Z,18.30
2023-02-22T15:06:56.008Z,18.30
2023-02-22T15:09:28.624Z,18.20
2023-02-22T15:12:13.425Z,18.10
2023-02-22T15:14:44.597Z,18.10
2023-02-22T15:17:19.717Z,18.10
2023-02-22T15:19:50.798Z,18.10
2023-02-22T15:22:24.092Z,18.10
2023-02-22T15:25:09.006Z,18.00
2023-02-22T15:27:39.959Z,18.00
2023-02-22T15:30:26.690Z,18.00
2023-02-22T15:33:04.162Z,18.00
2023-02-22T15:35:33.643Z,18.00
2023-02-22T15:38:20.146Z,18.00
2023-02-22T15:40:50.738Z,17.90
2023-02-22T15:43:24.361Z,17.90
2023-02-22T15:45:51.979Z,17.90
2023-02-22T15:48:19.341Z,17.80
2023-02-22T15:51:12.487Z,17.90
2023-02-22T15:53:46.763Z,17.80
2023-02-22T15:56:16.925Z,17.80
2023-02-22T15:58:46.553Z,17.80
2023-02-22T16:01:19.718Z,17.80
2023-02-22T16:03:58.622Z,17.80
2023-02-22T16:06:40.582Z,17.70
2023-02-22T16:09:40.382Z,17.80
2023-02-22T16:12:22.504Z,17.70
2023-02-22T16:14:50.134Z,17.70
2023-02-22T16:17:37.879Z,17.70
2023-02-22T16:20:14.397Z,17.70
2023-02-22T16:22:49.304Z,17.70
2023-02-22T16:25:31.135Z,17.70
2023-02-22T16:28:06.380Z,17.70
2023-02-22T16:30:39.583Z,17.70
2023-02-22T16:33:13.907Z,17.70
2023-02-22T16:35:41.137Z,17.70
2023-02-22T16:38:17.177Z,17.70
2023-02-22T16:40:54.670Z,17.70
2023-02-22T16:43:31.652Z,17.60
2023-02-22T16:45:59.158Z,17.60
2023-02-22T16:48:27.220Z,17.60
2023-02-22T16:50:59.036Z,17.60
2023-02-22T16:53:30.695Z,17.60
2023-02-22T16:56:04.534Z,17.60
2023-02-22T16:58:36.787Z,17.60
2023-02-22T17:01:03.812Z,17.50
2023-02-22T17:03:30.839Z,17.60
2023-02-22T17:05:57.814Z,17.50
2023-02-22T17:08:24.871Z,17.50
2023-02-22T17:10:55.235Z,17.50
2023-02-22T17:13:26.922Z,17.50
2023-02-22T17:15:57.045Z,17.50
2023-02-22T17:18:28.661Z,17.50
2023-02-22T17:20:56.348Z,17.50
2023-02-22T17:23:24.783Z,17.50
2023-02-22T17:25:53.756Z,17.40
2023-02-22T17:28:21.840Z,17.40
2023-02-22T17:30:49.115Z,17.40
2023-02-22T17:33:21.388Z,17.40
2023-02-22T17:35:48.459Z,17.40
2023-02-22T17:38:18.767Z,17.40
2023-02-22T17:40:54.897Z,17.40
2023-02-22T17:43:22.692Z,17.40
2023-02-22T17:45:50.106Z,17.40
2023-02-22T17:48:18.524Z,17.40
2023-02-22T17:50:46.835Z,17.40
2023-02-22T17:53:14.354Z,17.40
2023-02-22T17:55:42.821Z,17.40
2023-02-22T17:58:14.745Z,17.30
2023-02-22T18:00:48.447Z,17.30
2023-02-22T18:03:21.727Z,17.30
2023-02-22T18:05:51.183Z,17.30
2023-02-22T18:08:18.509Z,17.30
2023-02-22T18:10:46.047Z,17.30
2023-02-22T18:13:18.014Z,17.30
2023-02-22T18:15:46.176Z,17.30
2023-02-22T18:18:13.317Z,17.40
2023-02-22T18:20:44.645Z,17.40
2023-02-22T18:23:15.908Z,17.40
2023-02-22T18:26:07.768Z,17.40
2023-02-22T18:28:37.519Z,17.40
2023-02-22T18:31:15.701Z,17.50
2023-02-22T18:33:43.842Z,17.50
2023-02-22T18:36:11.922Z,17.50
2023-02-22T18:38:43.088Z,17.50
2023-02-22T18:41:13.349Z,17.50
2023-02-22T18:43:40.999Z,17.50
2023-02-22T18:46:10.875Z,17.50
2023-02-22T18:48:38.724Z,17.50
2023-02-22T18:51:09.847Z,17.50
2023-02-22T18:53:38.468Z,17.50
2023-02-22T18:56:08.456Z,17.50
2023-02-22T18:58:36.297Z,17.50
2023-02-22T19:01:04.581Z,17.50
2023-02-22T19:03:38.140Z,17.50
2023-02-22T19:06:10.486Z,17.50
2023-02-22T19:08:39.963Z,17.50
2023-02-22T19:11:09.756Z,17.60
2023-02-22T19:13:37.577Z,17.50
2023-02-22T19:16:07.813Z,17.50
2023-02-22T19:18:35.035Z,17.50
2023-02-22T19:21:03.917Z,17.50
2023-02-22T19:23:34.460Z,17.50
2023-02-22T19:26:03.967Z,17.50
2023-02-22T19:28:36.865Z,17.50
2023-02-22T19:31:22.282Z,17.50
2023-02-22T19:33:52.571Z,17.50
2023-02-22T19:36:23.157Z,17.50
2023-02-22T19:38:50.264Z,17.50
2023-02-22T19:41:20.164Z,17.50
2023-02-22T19:43:48.619Z,17.50
2023-02-22T19:46:17.917Z,17.50
2023-02-22T19:48:52.189Z,17.50
2023-02-22T19:51:21.081Z,17.50
2023-02-22T19:53:48.014Z,17.50
2023-02-22T19:56:17.798Z,17.50
2023-02-22T19:58:46.726Z,17.50
2023-02-22T20:01:23.543Z,17.40
2023-02-22T20:03:54.428Z,17.40
2023-02-22T20:06:28.084Z,17.40
2023-02-22T20:08:56.422Z,17.40
2023-02-22T20:11:24.832Z,17.40
2023-02-22T20:13:51.794Z,17.40
2023-02-22T20:16:18.796Z,17.40
2023-02-22T20:18:46.797Z,17.40
2023-02-22T20:21:24.402Z,17.40
2023-02-22T20:23:51.347Z,17.30
2023-02-22T20:26:22.604Z,17.30
2023-02-22T20:28:50.173Z,17.30
2023-02-22T20:31:17.853Z,17.20
2023-02-22T20:33:47.900Z,17.30
2023-02-22T20:36:17.649Z,17.30
2023-02-22T20:38:45.774Z,17.30
2023-02-22T20:41:16.799Z,17.30
2023-02-22T20:43:43.851Z,17.30
2023-02-22T20:46:10.795Z,17.30
2023-02-22T20:48:37.693Z,17.30
2023-02-22T20:51:08.072Z,17.20
2023-02-22T20:53:35.448Z,17.20
2023-02-22T20:56:02.611Z,17.20
2023-02-22T20:58:29.485Z,17.20
2023-02-22T21:00:56.437Z,17.20
2023-02-22T21:03:23.344Z,17.20
2023-02-22T21:05:50.235Z,17.10
2023-02-22T21:08:17.085Z,17.10
2023-02-22T21:10:45.968Z,17.10
2023-02-22T21:13:13.200Z,17.10
2023-02-22T21:15:43.564Z,17.10
2023-02-22T21:18:11.325Z,17.00
2023-02-22T21:20:41.792Z,17.00
2023-02-22T21:23:11.077Z,17.00
2023-02-22T21:25:38.735Z,17.00
2023-02-22T21:28:05.804Z,17.00
2023-02-22T21:30:33.490Z,17.00
2023-02-22T21:33:01.335Z,17.00
2023-02-22T21:35:28.194Z,16.90
2023-02-22T21:37:55.062Z,16.90
2023-02-22T21:40:21.946Z,16.90
2023-02-22T21:42:49.531Z,16.90
2023-02-22T21:45:21.013Z,16.90
2023-02-22T21:47:48.866Z,16.90
2023-02-22T21:50:17.905Z,16.90
2023-02-22T21:52:46.001Z,16.90
2023-02-22T21:55:14.052Z,16.90
2023-02-22T21:57:41.251Z,16.90
2023-02-22T22:00:18.401Z,16.90
2023-02-22T22:02:46.236Z,16.90
2023-02-22T22:05:18.165Z,16.90
2023-02-22T22:07:44.987Z,16.90
2023-02-22T22:10:17.843Z,16.90
2023-02-22T22:12:50.522Z,16.90
2023-02-22T22:15:17.863Z,16.90
2023-02-22T22:17:46.235Z,16.90
2023-02-22T22:20:15.654Z,16.90
2023-02-22T22:22:46.146Z,16.80
2023-02-22T22:25:14.271Z,16.80
2023-02-22T22:27:41.079Z,16.80
2023-02-22T22:30:08.572Z,16.80
2023-02-22T22:32:35.438Z,16.80
2023-02-22T22:35:04.602Z,16.80
2023-02-22T22:37:31.576Z,16.70
2023-02-22T22:39:58.547Z,16.70
2023-02-22T22:42:25.634Z,16.70
2023-02-22T22:44:52.584Z,16.70
2023-02-22T22:47:20.930Z,16.60
2023-02-22T22:49:47.926Z,16.60
2023-02-22T22:52:16.558Z,16.60
2023-02-22T22:54:43.654Z,16.60
2023-02-22T22:57:11.222Z,16.60
2023-02-22T22:59:38.113Z,16.50
2023-02-22T23:02:10.509Z,16.50
2023-02-22T23:04:38.118Z,16.50
2023-02-22T23:07:06.653Z,16.50
2023-02-22T23:09:38.820Z,16.50
2023-02-22T23:12:09.414Z,16.50
2023-02-22T23:14:39.071Z,16.50
2023-02-22T23:17:15.260Z,16.50
2023-02-22T23:19:47.030Z,16.50
2023-02-22T23:22:14.456Z,16.40
2023-02-22T23:24:41.718Z,16.40
2023-02-22T23:27:10.909Z,16.40
2023-02-22T23:29:40.812Z,16.30
2023-02-22T23:32:08.994Z,16.30
2023-02-22T23:34:37.187Z,16.30
2023-02-22T23:37:04.113Z,16.20
2023-02-22T23:39:30.924Z,16.20
2023-02-22T23:42:03.375Z,16.20
2023-02-22T23:44:30.336Z,16.20
2023-02-22T23:46:57.216Z,16.20
2023-02-22T23:49:27.132Z,16.20
2023-02-22T23:51:54.076Z,16.20
2023-02-22T23:54:26.194Z,16.20
2023-02-22T23:57:02.474Z,16.20
2023-02-22T23:59:30.651Z,16.10
